Time;durP1;ratioP1;P1;durP2;ratioP2;P2;SDS_P1;SDS_P2;PMS_P1;PMS_P2;Temp;Humidity;BMP_temperature;BMP_pressure;BME280_temperature;BME280_humidity;BME280_pressure;Samples;Min_cycle;Max_cycle;Signal;HPM_P1;HPM_P2
2021/07/29 00:00:53;;;;;;;19.15;14.18;;;;;;;20.24;100.00;98601.53;4656263;30;20077;-59
2021/07/29 00:03:19;;;;;;;17.15;13.02;;;;;;;20.29;100.00;98600.16;4654751;30;20209;-59
2021/07/29 00:05:47;;;;;;;17.67;13.25;;;;;;;20.36;100.00;98602.25;4654703;30;20059;-60
2021/07/29 00:08:13;;;;;;;17.90;13.48;;;;;;;20.41;100.00;98597.38;4660330;30;20145;-58
2021/07/29 00:10:38;;;;;;;18.02;12.85;;;;;;;20.45;100.00;98596.13;4663866;30;20050;-58
2021/07/29 00:13:04;;;;;;;17.27;12.70;;;;;;;20.48;100.00;98598.47;5137202;24;20042;-59
2021/07/29 00:15:30;;;;;;;18.45;13.60;;;;;;;20.51;100.00;98598.22;4690802;30;20096;-59
2021/07/29 00:20:23;;;;;;;19.33;14.80;;;;;;;20.44;100.00;98594.44;4686622;30;20054;-57
2021/07/29 00:22:53;;;;;;;25.25;16.40;;;;;;;20.35;100.00;98593.50;4675425;30;20057;-58
2021/07/29 00:25:20;;;;;;;23.67;16.67;;;;;;;20.25;100.00;98582.91;4682051;30;20053;-58
2021/07/29 00:27:46;;;;;;;25.60;16.00;;;;;;;20.22;100.00;98585.00;4681448;30;20104;-58
2021/07/29 00:30:13;;;;;;;22.67;15.95;;;;;;;20.22;100.00;98577.91;4666081;30;20141;-57
2021/07/29 00:32:42;;;;;;;27.73;17.38;;;;;;;20.21;100.00;98572.75;4666856;30;20125;-58
2021/07/29 00:35:14;;;;;;;;;;;;;;;20.24;100.00;98577.78;4668793;30;20489;-58
2021/07/29 00:37:49;;;;;;;27.20;17.60;;;;;;;20.25;100.00;98574.16;4699511;30;19927;-58
2021/07/29 00:40:23;;;;;;;24.67;18.35;;;;;;;20.25;100.00;98568.91;4699494;30;20203;-58
2021/07/29 00:42:49;;;;;;;30.35;20.20;;;;;;;20.16;100.00;98567.06;4695634;30;20054;-58
2021/07/29 00:45:15;;;;;;;27.85;21.17;;;;;;;20.10;100.00;98567.63;4681606;30;20054;-58
2021/07/29 00:47:42;;;;;;;28.50;21.02;;;;;;;20.07;100.00;98565.28;4679657;30;20423;-58
2021/07/29 00:50:13;;;;;;;32.80;21.88;;;;;;;20.00;100.00;98566.81;4681027;30;20540;-58
2021/07/29 00:52:39;;;;;;;37.53;24.13;;;;;;;19.94;100.00;98562.09;4681019;30;20189;-59
2021/07/29 00:55:05;;;;;;;34.97;22.67;;;;;;;19.85;100.00;98558.47;4680804;30;20054;-59
2021/07/29 00:57:31;;;;;;;34.03;23.55;;;;;;;19.82;100.00;98558.75;4681013;30;20053;-59
2021/07/29 00:59:57;;;;;;;31.77;22.10;;;;;;;19.81;100.00;98552.66;4679460;30;20756;-56
2021/07/29 01:02:23;;;;;;;43.58;26.55;;;;;;;19.80;100.00;98556.25;4681124;30;20531;-57
2021/07/29 01:04:49;;;;;;;32.67;23.17;;;;;;;19.80;100.00;98550.97;4680746;30;20046;-55
2021/07/29 01:07:15;;;;;;;35.28;23.30;;;;;;;19.81;100.00;98547.38;4674661;30;20137;-57
2021/07/29 01:09:40;;;;;;;31.98;22.20;;;;;;;19.75;100.00;98545.28;4663238;30;20524;-56
2021/07/29 01:12:07;;;;;;;28.30;20.35;;;;;;;19.74;100.00;98545.41;4664127;30;20494;-57
2021/07/29 01:14:33;;;;;;;33.75;23.58;;;;;;;19.78;100.00;98547.63;4650652;30;20070;-56
2021/07/29 01:16:58;;;;;;;37.17;23.55;;;;;;;19.80;100.00;98545.69;4663510;30;20050;-56
2021/07/29 01:19:26;;;;;;;37.00;24.73;;;;;;;19.82;100.00;98541.13;4663959;30;20137;-59
2021/07/29 01:21:53;;;;;;;38.20;24.63;;;;;;;19.83;100.00;98541.97;4666857;30;20542;-56
2021/07/29 01:24:19;;;;;;;32.45;23.73;;;;;;;19.86;100.00;98537.25;4680737;30;20132;-58
2021/07/29 01:26:45;;;;;;;28.65;20.63;;;;;;;19.86;100.00;98539.03;4680889;30;20057;-58
2021/07/29 01:29:11;;;;;;;29.92;20.10;;;;;;;19.84;100.00;98536.53;4678730;30;20550;-58
2021/07/29 01:31:37;;;;;;;33.97;21.33;;;;;;;19.83;100.00;98537.53;4673539;30;20189;-58
2021/07/29 01:34:02;;;;;;;27.48;20.48;;;;;;;19.79;100.00;98541.38;4672384;30;20113;-58
2021/07/29 01:36:28;;;;;;;31.23;21.75;;;;;;;19.78;100.00;98542.34;4648067;30;20538;-58
2021/07/29 01:38:54;;;;;;;29.77;20.73;;;;;;;19.76;100.00;98540.84;4675105;30;20054;-58
2021/07/29 01:41:19;;;;;;;28.20;19.35;;;;;;;19.69;100.00;98539.72;4680271;30;20136;-58
2021/07/29 01:46:50;;;;;;;34.22;21.25;;;;;;;19.76;100.00;98539.03;4657959;30;20156;-58
2021/07/29 01:49:22;;;;;;;37.53;22.15;;;;;;;19.84;100.00;98533.06;4659039;30;20058;-57
2021/07/29 01:51:48;;;;;;;31.05;20.88;;;;;;;19.85;100.00;98534.72;4658995;30;20047;-57
2021/07/29 01:54:15;;;;;;;34.20;22.27;;;;;;;19.85;100.00;98538.22;4658801;30;20054;-58
2021/07/29 01:56:42;;;;;;;34.47;20.80;;;;;;;19.86;100.00;98539.03;4660154;30;20148;-58
2021/07/29 01:59:08;;;;;;;37.40;23.73;;;;;;;19.78;100.00;98539.72;4659068;30;20051;-58
2021/07/29 02:01:34;;;;;;;38.63;24.42;;;;;;;19.77;100.00;98537.25;4659890;30;20058;-57
2021/07/29 02:03:59;;;;;;;40.45;23.27;;;;;;;19.74;100.00;98537.50;4656327;30;20054;-58
2021/07/29 02:06:25;;;;;;;40.03;23.98;;;;;;;19.70;100.00;98529.03;4659044;30;20074;-57
2021/07/29 02:08:50;;;;;;;33.30;22.65;;;;;;;19.75;100.00;98539.19;4659986;30;20598;-57
2021/07/29 02:11:16;;;;;;;40.30;23.08;;;;;;;19.77;100.00;98535.44;4657872;30;20054;-57
2021/07/29 02:13:42;;;;;;;34.40;21.75;;;;;;;19.84;100.00;98548.88;4659840;30;20058;-58
2021/07/29 02:16:12;;;;;;;32.75;22.08;;;;;;;19.85;100.00;98540.84;4658987;30;20471;-56
2021/07/29 02:18:37;;;;;;;35.17;21.95;;;;;;;19.94;100.00;98541.00;4658823;30;20097;-57
2021/07/29 02:21:08;;;;;;;34.42;21.63;;;;;;;19.99;100.00;98547.53;4659273;30;20047;-58
2021/07/29 02:23:33;;;;;;;37.53;23.35;;;;;;;20.03;100.00;98538.34;4658790;30;20079;-58
2021/07/29 02:25:59;;;;;;;31.88;21.63;;;;;;;20.07;100.00;98538.91;4663513;30;20054;-58
2021/07/29 02:28:25;;;;;;;29.10;18.70;;;;;;;20.09;100.00;98544.88;4663274;30;20447;-57
2021/07/29 02:30:50;;;;;;;30.95;20.17;;;;;;;20.07;100.00;98546.81;4663542;30;20057;-57
2021/07/29 02:33:16;;;;;;;32.28;20.33;;;;;;;20.07;100.00;98541.53;4663458;30;20046;-58
2021/07/29 02:35:41;;;;;;;31.25;21.02;;;;;;;20.12;100.00;98544.59;4661356;30;20042;-56
2021/07/29 02:38:07;;;;;;;29.17;20.20;;;;;;;20.16;100.00;98544.16;4663133;30;20054;-57
2021/07/29 02:40:33;;;;;;;29.85;19.35;;;;;;;20.23;100.00;98542.63;4663103;30;20050;-56
2021/07/29 02:42:58;;;;;;;30.83;19.63;;;;;;;20.27;100.00;98541.38;4663621;30;20431;-57
2021/07/29 02:45:24;;;;;;;26.67;17.73;;;;;;;20.29;100.00;98549.16;4670202;30;20073;-58
2021/07/29 02:47:50;;;;;;;28.77;17.58;;;;;;;20.33;100.00;98549.72;4675334;30;20058;-57
2021/07/29 02:50:16;;;;;;;34.92;18.80;;;;;;;20.35;100.00;98556.53;4675743;30;20427;-57
2021/07/29 02:52:42;;;;;;;24.70;16.40;;;;;;;20.37;100.00;98556.38;4674973;30;20042;-57
2021/07/29 02:55:07;;;;;;;26.52;16.35;;;;;;;20.39;100.00;98557.91;4675476;30;20057;-57
2021/07/29 02:57:35;;;;;;;26.40;16.90;;;;;;;20.40;100.00;98559.59;4675884;30;20561;-57
2021/07/29 03:00:00;;;;;;;21.85;15.40;;;;;;;20.41;100.00;98552.50;4676455;30;20518;-57
2021/07/29 03:02:26;;;;;;;21.42;14.60;;;;;;;20.43;100.00;98567.22;4675306;30;20148;-57
2021/07/29 03:04:52;;;;;;;24.83;14.13;;;;;;;20.41;100.00;98560.44;4676532;30;20054;-57
2021/07/29 03:07:17;;;;;;;20.08;13.27;;;;;;;20.46;100.00;98569.59;4675903;30;20050;-58
2021/07/29 03:09:43;;;;;;;17.15;11.15;;;;;;;20.45;100.00;98570.56;4660562;30;20193;-58
2021/07/29 03:12:09;;;;;;;17.38;11.75;;;;;;;20.46;100.00;98569.59;4675572;30;20050;-57
2021/07/29 03:14:34;;;;;;;16.63;10.13;;;;;;;20.44;100.00;98568.06;4679550;30;20152;-57
2021/07/29 03:17:00;;;;;;;15.50;10.43;;;;;;;20.41;100.00;98574.44;4680457;30;20050;-57
2021/07/29 03:19:26;;;;;;;13.88;10.35;;;;;;;20.40;100.00;98571.97;4679846;30;20050;-59
2021/07/29 03:21:51;;;;;;;12.05;10.40;;;;;;;20.40;100.00;98575.44;4679833;30;20058;-57
2021/07/29 03:24:17;;;;;;;14.52;9.60;;;;;;;20.42;100.00;98586.66;4680102;30;20430;-59
2021/07/29 03:26:43;;;;;;;13.45;10.00;;;;;;;20.43;100.00;98595.41;4676760;30;20049;-58
2021/07/29 03:29:08;;;;;;;14.05;9.52;;;;;;;20.41;100.00;98589.47;4676146;30;20065;-58
2021/07/29 03:31:34;;;;;;;13.85;9.75;;;;;;;20.36;100.00;98589.06;4680027;30;20046;-58
2021/07/29 03:34:00;;;;;;;12.07;9.43;;;;;;;20.33;100.00;98584.03;4680256;30;20057;-58
2021/07/29 03:36:25;;;;;;;15.77;10.05;;;;;;;20.34;100.00;98593.63;4678038;30;20046;-57
2021/07/29 03:38:51;;;;;;;13.02;10.85;;;;;;;20.34;100.00;98591.00;4679852;30;20068;-57
2021/07/29 03:41:17;;;;;;;15.48;10.65;;;;;;;20.36;100.00;98591.69;4680193;30;20050;-57
2021/07/29 03:43:42;;;;;;;13.75;11.05;;;;;;;20.41;100.00;98590.28;4678055;30;20060;-57
2021/07/29 03:46:09;;;;;;;14.07;10.70;;;;;;;20.44;100.00;98590.00;4679429;30;20155;-57
2021/07/29 03:48:35;;;;;;;15.35;10.98;;;;;;;20.47;100.00;98586.25;4680104;30;20050;-58
2021/07/29 03:51:00;;;;;;;15.57;10.77;;;;;;;20.47;100.00;98597.63;4680236;30;20052;-58
2021/07/29 03:53:26;;;;;;;16.65;12.07;;;;;;;20.46;100.00;98592.53;4682330;30;20073;-58
2021/07/29 03:55:52;;;;;;;17.38;11.93;;;;;;;20.46;100.00;98603.91;4680508;30;20057;-58
2021/07/29 03:58:17;;;;;;;15.80;10.85;;;;;;;20.41;100.00;98584.19;4678179;30;20056;-59
2021/07/29 04:00:43;;;;;;;14.80;10.82;;;;;;;20.45;100.00;98591.69;4678854;30;20042;-58
2021/07/29 04:03:09;;;;;;;19.65;10.93;;;;;;;20.47;100.00;98597.63;4678433;30;20050;-58
2021/07/29 04:05:34;;;;;;;18.80;12.38;;;;;;;20.48;100.00;98586.09;5141324;24;20061;-56
2021/07/29 04:08:00;;;;;;;20.13;13.30;;;;;;;20.50;100.00;98583.34;4699176;30;20118;-57
2021/07/29 04:10:26;;;;;;;19.35;13.27;;;;;;;20.53;100.00;98581.22;4710220;30;20127;-57
2021/07/29 04:12:51;;;;;;;17.88;13.30;;;;;;;20.51;100.00;98591.13;4699810;30;20049;-57
2021/07/29 04:15:17;;;;;;;17.73;12.32;;;;;;;20.55;100.00;98586.38;4700088;30;20045;-58
2021/07/29 04:17:43;;;;;;;28.02;15.85;;;;;;;20.59;100.00;98596.50;4699831;30;20057;-57
2021/07/29 04:20:09;;;;;;;25.80;15.40;;;;;;;20.60;100.00;98587.63;4699823;30;20514;-57
2021/07/29 04:22:35;;;;;;;21.52;13.23;;;;;;;20.63;100.00;98592.59;4699866;30;20056;-58
2021/07/29 04:25:00;;;;;;;18.98;13.55;;;;;;;20.65;100.00;98584.56;4683859;30;20045;-58
2021/07/29 04:27:26;;;;;;;18.23;13.43;;;;;;;20.68;100.00;98586.88;4702003;30;20049;-60
2021/07/29 04:29:52;;;;;;;23.83;14.23;;;;;;;20.73;100.00;98591.78;4701262;30;20061;-58
2021/07/29 04:32:20;;;;;;;17.90;13.50;;;;;;;20.78;100.00;98590.34;4703454;30;20146;-57
2021/07/29 04:34:48;;;;;;;18.15;12.35;;;;;;;20.85;100.00;98586.16;4702115;30;20426;-58
2021/07/29 04:37:15;;;;;;;18.77;12.18;;;;;;;20.95;100.00;98583.47;4701332;30;20046;-57
2021/07/29 04:39:44;;;;;;;18.13;12.68;;;;;;;21.04;100.00;98575.50;4695606;30;20148;-58
2021/07/29 04:42:10;;;;;;;14.95;12.25;;;;;;;21.11;100.00;98571.31;4703305;30;20042;-58
2021/07/29 04:44:36;;;;;;;18.05;12.23;;;;;;;21.21;100.00;98583.69;4707809;30;20195;-58
2021/07/29 04:47:02;;;;;;;16.00;12.27;;;;;;;21.24;100.00;98578.94;5146152;24;20069;-57
2021/07/29 04:49:27;;;;;;;17.92;12.40;;;;;;;21.33;100.00;98579.88;4680741;30;20494;-58
2021/07/29 04:51:54;;;;;;;13.10;10.00;;;;;;;21.37;100.00;98578.59;4680827;30;20068;-58
2021/07/29 04:54:20;;;;;;;13.80;10.32;;;;;;;21.36;100.00;98588.31;4665491;30;20507;-58
2021/07/29 04:56:45;;;;;;;15.10;10.27;;;;;;;21.43;100.00;98585.94;5136174;24;20060;-58
2021/07/29 04:59:11;;;;;;;16.45;11.20;;;;;;;21.53;100.00;98587.53;4714689;30;20529;-58
2021/07/29 05:01:38;;;;;;;12.32;10.13;;;;;;;21.61;100.00;98592.09;4714027;30;20055;-59
2021/07/29 05:04:04;;;;;;;12.07;9.88;;;;;;;21.65;99.83;98590.81;4699664;30;20045;-58
2021/07/29 05:09:25;;;;;;;11.43;8.98;;;;;;;21.56;98.80;98589.88;4821377;24;20116;-57
2021/07/29 05:11:50;;;;;;;13.52;10.95;;;;;;;21.56;98.39;98600.47;4694268;30;20478;-59
2021/07/29 05:14:16;;;;;;;18.65;15.73;;;;;;;21.48;97.47;98599.53;4692041;30;20059;-58
2021/07/29 05:16:42;;;;;;;13.80;9.80;;;;;;;21.46;97.53;98602.31;4693615;30;20046;-59
2021/07/29 05:19:07;;;;;;;13.52;10.65;;;;;;;21.53;97.13;98602.56;4693571;30;20180;-58
2021/07/29 05:21:34;;;;;;;11.68;9.70;;;;;;;21.60;97.36;98602.81;4694106;30;20060;-58
2021/07/29 05:24:03;;;;;;;13.60;10.05;;;;;;;21.66;96.78;98605.72;4682132;30;20054;-58
2021/07/29 05:26:29;;;;;;;13.50;9.90;;;;;;;21.64;95.85;98610.31;4694011;30;20041;-58
2021/07/29 05:28:54;;;;;;;14.05;10.38;;;;;;;21.64;95.74;98602.38;5149361;24;20077;-58
2021/07/29 05:31:20;;;;;;;11.23;9.90;;;;;;;21.71;95.64;98600.81;4695827;30;20053;-58
2021/07/29 05:33:48;;;;;;;14.95;9.48;;;;;;;21.75;93.75;98603.97;4697194;30;20583;-58
2021/07/29 05:36:14;;;;;;;12.50;10.32;;;;;;;21.80;93.42;98607.00;4697768;30;20048;-58
2021/07/29 05:41:35;;;;;;;10.80;9.25;;;;;;;21.97;91.15;98614.16;4816388;24;20521;-58
2021/07/29 05:44:01;;;;;;;11.25;9.95;;;;;;;22.04;90.83;98606.44;4715541;30;20052;-58
2021/07/29 05:46:26;;;;;;;16.30;12.55;;;;;;;22.09;90.54;98609.47;4715721;30;20045;-58
2021/07/29 05:48:52;;;;;;;12.88;9.40;;;;;;;22.13;90.41;98602.91;4715136;30;20387;-59
2021/07/29 05:51:18;;;;;;;14.13;9.93;;;;;;;22.24;89.65;98614.06;4714940;30;20045;-59
2021/07/29 05:53:43;;;;;;;10.32;8.52;;;;;;;22.38;88.40;98605.59;4714742;30;20106;-60
2021/07/29 05:56:10;;;;;;;9.73;8.18;;;;;;;22.57;86.21;98601.09;4714646;30;20041;-58
2021/07/29 05:58:37;;;;;;;11.45;8.77;;;;;;;22.80;83.59;98591.69;4714102;30;20080;-58
2021/07/29 06:01:08;;;;;;;12.30;9.30;;;;;;;22.99;82.62;98607.38;4698504;30;20061;-58
2021/07/29 06:03:34;;;;;;;11.43;8.65;;;;;;;23.10;81.73;98607.09;4714140;30;20045;-58
2021/07/29 06:06:00;;;;;;;9.90;8.05;;;;;;;23.18;80.37;98611.63;4713572;30;20053;-58
2021/07/29 06:08:26;;;;;;;8.95;8.00;;;;;;;23.20;79.62;98610.47;4715125;30;20115;-58
2021/07/29 06:10:51;;;;;;;7.97;6.97;;;;;;;23.15;78.80;98611.91;4714427;30;20394;-57
2021/07/29 06:13:17;;;;;;;10.10;8.05;;;;;;;23.28;78.13;98614.16;4715298;30;20423;-60
2021/07/29 06:15:43;;;;;;;8.45;7.43;;;;;;;23.29;76.45;98616.63;4714483;30;20532;-60
2021/07/29 06:18:11;;;;;;;8.57;7.10;;;;;;;22.97;76.90;98613.81;4713728;30;20576;-59
2021/07/29 06:20:37;;;;;;;8.10;7.15;;;;;;;22.86;77.78;98619.38;4714822;30;20107;-60
2021/07/29 06:23:03;;;;;;;8.88;7.47;;;;;;;22.65;78.74;98625.00;4714464;30;20040;-60
2021/07/29 06:25:28;;;;;;;10.23;8.38;;;;;;;22.56;79.17;98621.44;4713957;30;20387;-60
2021/07/29 06:27:54;;;;;;;10.45;7.90;;;;;;;22.61;79.86;98623.66;4714345;30;20048;-59
2021/07/29 06:30:20;;;;;;;10.13;7.65;;;;;;;22.68;80.03;98630.81;4710418;30;20045;-59
2021/07/29 06:32:45;;;;;;;13.80;9.18;;;;;;;22.70;80.34;98639.47;4712522;30;20107;-60
2021/07/29 06:35:11;;;;;;;9.15;6.90;;;;;;;22.59;79.81;98634.41;4712494;30;20053;-61
2021/07/29 06:37:38;;;;;;;8.63;6.68;;;;;;;22.53;79.08;98624.41;4713501;30;20051;-60
2021/07/29 06:40:05;;;;;;;8.38;6.93;;;;;;;22.60;78.97;98622.81;4713965;30;20068;-59
2021/07/29 06:42:30;;;;;;;10.85;7.28;;;;;;;22.72;78.47;98629.56;4713169;30;20844;-59
2021/07/29 06:44:56;;;;;;;8.48;6.75;;;;;;;22.75;77.72;98629.25;4711975;30;20060;-61
2021/07/29 06:47:23;;;;;;;8.48;6.35;;;;;;;22.80;77.72;98623.50;4697855;30;20049;-60
2021/07/29 06:52:44;;;;;;;8.77;7.25;;;;;;;23.28;76.62;98630.06;4758035;24;20164;-60
2021/07/29 06:55:10;;;;;;;11.80;7.43;;;;;;;24.27;72.11;98625.75;4695387;30;20128;-60
2021/07/29 06:57:36;;;;;;;20.15;14.50;;;;;;;25.00;69.10;98615.09;4694849;30;20153;-59
2021/07/29 07:00:01;;;;;;;9.05;7.75;;;;;;;25.45;66.77;98617.09;4696549;30;20498;-60
2021/07/29 07:02:28;;;;;;;7.30;6.22;;;;;;;26.50;61.70;98614.66;4696866;30;20076;-60
2021/07/29 07:04:54;;;;;;;7.43;6.32;;;;;;;27.69;57.55;98617.22;4695432;30;20518;-60
2021/07/29 07:07:20;;;;;;;7.78;6.05;;;;;;;28.98;52.75;98617.06;4696024;30;20794;-60
2021/07/29 07:09:45;;;;;;;7.82;5.88;;;;;;;29.19;50.57;98618.00;4695950;30;20433;-60
2021/07/29 07:12:11;;;;;;;9.15;6.10;;;;;;;29.15;51.06;98609.56;4694309;30;20049;-59
2021/07/29 07:14:37;;;;;;;8.70;6.25;;;;;;;28.95;50.64;98611.25;4694418;30;20506;-60
2021/07/29 07:17:06;;;;;;;6.45;5.80;;;;;;;29.38;49.02;98604.75;4695742;30;20055;-60
2021/07/29 07:19:32;;;;;;;7.93;6.75;;;;;;;29.07;51.20;98599.00;4691721;30;20553;-60
2021/07/29 07:21:58;;;;;;;10.32;6.90;;;;;;;28.45;53.30;98610.44;4694724;30;20197;-60
2021/07/29 07:24:24;;;;;;;7.05;5.75;;;;;;;27.79;54.02;98607.06;4693803;30;20057;-60
2021/07/29 07:26:50;;;;;;;6.55;5.85;;;;;;;27.42;55.24;98599.22;4695874;30;21795;-58
2021/07/29 07:29:16;;;;;;;7.38;6.00;;;;;;;27.12;56.32;98608.22;4700449;30;20134;-59
2021/07/29 07:31:41;;;;;;;11.43;5.53;;;;;;;26.61;57.43;98613.38;4698318;30;20053;-62
2021/07/29 07:34:07;;;;;;;9.18;6.43;;;;;;;26.23;58.66;98601.03;4697588;30;20049;-60
2021/07/29 07:36:32;;;;;;;8.82;6.00;;;;;;;25.94;59.54;98601.72;4699054;30;20053;-60
2021/07/29 07:38:58;;;;;;;13.10;6.20;;;;;;;25.77;60.25;98619.63;4694507;30;20052;-58
2021/07/29 07:41:38;;;;;;;7.70;6.18;;;;;;;25.63;60.99;98615.06;5072558;24;20032;31
2021/07/29 07:44:05;;;;;;;13.85;7.07;;;;;;;25.50;60.73;98612.06;4661136;30;20467;-58
2021/07/29 07:46:30;;;;;;;8.00;6.22;;;;;;;25.52;60.88;98610.91;4661356;30;20057;-57
2021/07/29 07:48:56;;;;;;;9.95;7.07;;;;;;;25.74;60.54;98622.66;4674853;30;20626;-58
2021/07/29 07:51:22;;;;;;;7.90;5.55;;;;;;;25.81;59.89;98623.59;4677968;30;20046;-59
2021/07/29 07:53:48;;;;;;;7.45;6.18;;;;;;;25.88;60.07;98623.72;4677515;30;20046;-60
2021/07/29 07:56:13;;;;;;;8.52;6.75;;;;;;;25.90;60.02;98627.06;4682572;30;20501;-53
2021/07/29 07:58:39;;;;;;;8.45;6.22;;;;;;;25.98;59.58;98627.00;4691867;30;20054;-52
2021/07/29 08:01:04;;;;;;;8.18;5.65;;;;;;;25.88;59.03;98627.22;4690779;30;20060;-53
2021/07/29 08:03:30;;;;;;;8.20;5.93;;;;;;;26.02;58.95;98625.63;4678962;30;20144;-53
2021/07/29 08:05:56;;;;;;;7.82;6.07;;;;;;;26.58;57.19;98629.75;4678763;30;20042;-52
2021/07/29 08:08:22;;;;;;;9.43;5.60;;;;;;;27.02;56.04;98629.03;4690809;30;20133;-52
2021/07/29 08:10:50;;;;;;;5.70;5.10;;;;;;;27.29;54.26;98629.22;4678299;30;20204;-54
2021/07/29 08:13:16;;;;;;;5.53;5.00;;;;;;;29.26;48.90;98614.34;5134253;24;20076;-54
2021/07/29 08:15:41;;;;;;;6.60;4.82;;;;;;;29.99;47.74;98622.75;4716018;30;20045;-54
2021/07/29 08:18:08;;;;;;;5.68;5.07;;;;;;;31.16;44.03;98631.91;4716544;30;20045;-54
2021/07/29 08:20:34;;;;;;;11.18;5.00;;;;;;;30.90;44.77;98618.50;4725425;30;20072;-53
2021/07/29 08:22:59;;;;;;;10.32;5.32;;;;;;;31.45;44.27;98622.53;4716237;30;20750;-55
2021/07/29 08:25:25;;;;;;;5.88;4.47;;;;;;;32.23;41.52;98624.06;4711575;30;20071;-54
2021/07/29 08:27:52;;;;;;;4.93;4.10;;;;;;;32.56;40.44;98626.50;4710348;30;20525;-54
2021/07/29 08:30:20;;;;;;;6.22;4.47;;;;;;;31.99;41.47;98622.09;4710693;30;20556;-54
2021/07/29 08:32:46;;;;;;;3.35;3.05;;;;;;;31.12;41.41;98618.09;4712762;30;20064;-52
2021/07/29 08:35:12;;;;;;;4.63;4.05;;;;;;;31.09;40.84;98625.75;4709510;30;20049;-52
2021/07/29 08:37:38;;;;;;;3.92;3.53;;;;;;;31.29;40.20;98623.84;4711058;30;20119;-52
2021/07/29 08:40:05;;;;;;;5.00;3.50;;;;;;;30.23;42.40;98614.97;4711956;30;20045;-51
2021/07/29 08:42:31;;;;;;;4.22;3.83;;;;;;;29.52;43.71;98619.03;4711220;30;20053;-55
2021/07/29 08:45:01;;;;;;;4.63;3.55;;;;;;;29.73;43.77;98616.22;4714020;30;20084;-54
2021/07/29 08:47:33;;;;;;;5.05;4.55;;;;;;;29.85;44.58;98621.84;4714494;30;20049;-54
2021/07/29 08:50:06;;;;;;;4.63;3.65;;;;;;;30.03;44.05;98622.13;4715627;30;20081;-53
2021/07/29 08:52:33;;;;;;;5.03;4.22;;;;;;;30.51;42.74;98619.34;4714831;30;20056;-54
2021/07/29 08:54:59;;;;;;;7.57;3.78;;;;;;;31.87;40.89;98626.53;4714910;30;20600;-56
2021/07/29 08:57:30;;;;;;;9.85;4.93;;;;;;;32.25;40.16;98629.22;4698606;30;20048;-53
2021/07/29 08:59:59;;;;;;;4.95;3.53;;;;;;;32.54;39.09;98620.53;4713959;30;20120;-53
2021/07/29 09:02:28;;;;;;;4.25;3.20;;;;;;;32.66;38.30;98620.69;4715312;30;20103;-57
2021/07/29 09:05:17;;;;;;;5.00;3.53;;;;;;;33.19;37.88;98629.91;5118254;25;20069;-54
2021/07/29 09:07:45;;;;;;;3.80;3.50;;;;;;;33.44;36.77;98618.25;4710965;30;20061;-55
2021/07/29 09:10:24;;;;;;;9.18;4.03;;;;;;;33.24;37.03;98618.47;4710144;30;20080;-60
2021/07/29 09:13:11;;;;;;;3.53;3.22;;;;;;;31.55;39.39;98623.75;4711069;30;20072;-59
2021/07/29 09:15:37;;;;;;;3.83;2.78;;;;;;;30.46;41.50;98621.78;5125492;25;20620;-59
2021/07/29 09:18:04;;;;;;;3.83;3.42;;;;;;;31.06;40.80;98629.66;4704497;30;20486;-59
2021/07/29 09:20:30;;;;;;;10.60;4.40;;;;;;;32.78;38.17;98626.97;4705701;30;20057;-59
2021/07/29 09:22:55;;;;;;;5.93;3.22;;;;;;;33.08;36.58;98622.53;4707112;30;20464;-56
2021/07/29 09:25:26;;;;;;;5.40;2.60;;;;;;;33.44;36.80;98620.97;4703252;30;20048;-58
2021/07/29 09:27:52;;;;;;;3.83;3.53;;;;;;;32.97;38.05;98628.69;4698862;30;20045;-61
2021/07/29 09:30:27;;;;;;;3.00;2.78;;;;;;;32.03;38.20;98617.13;4687391;30;20057;-60
2021/07/29 09:32:57;;;;;;;3.25;2.95;;;;;;;32.23;37.51;98612.47;4698146;30;20407;-58
2021/07/29 09:35:28;;;;;;;5.50;3.17;;;;;;;32.20;38.09;98615.59;4697964;30;20132;-60
2021/07/29 09:37:54;;;;;;;4.25;3.85;;;;;;;31.92;38.83;98618.66;4697325;30;20050;-60
2021/07/29 09:40:20;;;;;;;12.65;7.40;;;;;;;32.25;38.94;98619.28;4704645;30;20614;-59
2021/07/29 09:43:07;;;;;;;5.13;4.72;;;;;;;33.92;35.35;98610.19;4700319;30;20142;-59
2021/07/29 09:48:28;;;;;;;3.90;3.50;;;;;;;35.53;32.54;98609.81;5019494;24;20054;-58
2021/07/29 09:50:56;;;;;;;3.15;2.83;;;;;;;36.81;30.78;98611.91;4695939;30;20046;-58
2021/07/29 09:53:25;;;;;;;3.53;3.08;;;;;;;37.42;29.98;98623.66;4711668;30;20049;-64
2021/07/29 09:55:51;;;;;;;5.47;3.47;;;;;;;36.28;31.37;98623.19;4713450;30;20465;-55
2021/07/29 09:58:36;;;;;;;7.63;4.50;;;;;;;35.43;32.85;98617.72;5008661;24;20081;-56
2021/07/29 10:01:03;;;;;;;4.72;4.32;;;;;;;35.17;33.13;98627.94;4696802;30;20033;-54
2021/07/29 10:03:30;;;;;;;4.53;3.30;;;;;;;34.74;33.87;98619.38;4697078;30;20045;-57
2021/07/29 10:05:59;;;;;;;6.30;3.33;;;;;;;33.63;35.22;98619.88;4696811;30;20399;-55
2021/07/29 10:08:29;;;;;;;4.03;3.35;;;;;;;32.89;36.76;98622.72;5112398;25;20068;-60
2021/07/29 10:10:55;;;;;;;6.43;3.50;;;;;;;32.22;38.08;98617.03;4713735;30;20488;-58
2021/07/29 10:13:40;;;;;;;4.03;3.63;;;;;;;31.95;39.36;98608.28;4715404;30;20052;-58
2021/07/29 10:16:08;;;;;;;4.85;3.95;;;;;;;31.81;39.87;98616.63;4716062;30;20060;-57
2021/07/29 10:18:52;;;;;;;4.43;3.63;;;;;;;31.49;40.57;98605.78;4715260;30;20052;-54
2021/07/29 10:21:20;;;;;;;4.75;3.45;;;;;;;31.51;40.68;98600.16;4714692;30;20086;-56
2021/07/29 10:23:54;;;;;;;5.20;3.85;;;;;;;31.70;40.07;98603.84;4715205;30;20037;-55
2021/07/29 10:26:20;;;;;;;6.15;4.43;;;;;;;32.60;38.47;98608.88;4714856;30;20045;-57
2021/07/29 10:28:46;;;;;;;5.00;4.30;;;;;;;32.39;38.66;98603.88;4714330;30;20110;-54
2021/07/29 10:31:14;;;;;;;5.22;4.10;;;;;;;32.30;38.81;98597.09;4714692;30;20486;-56
2021/07/29 10:33:40;;;;;;;;;;;;;;;32.07;39.05;98608.41;4715549;30;20053;-54
2021/07/29 10:36:06;;;;;;;6.78;4.15;;;;;;;31.56;40.58;98609.25;4715877;30;19960;-56
2021/07/29 10:41:30;;;;;;;4.90;4.35;;;;;;;32.93;38.26;98607.78;4692893;30;20062;-57
2021/07/29 10:43:56;;;;;;;8.95;5.43;;;;;;;34.29;35.59;98608.22;4681255;30;20560;-54
2021/07/29 10:46:53;;;;;;;9.00;4.97;;;;;;;33.97;35.71;98599.53;4683002;30;20141;-62
2021/07/29 10:49:19;;;;;;;5.78;5.00;;;;;;;33.33;36.90;98602.84;4695922;30;20092;-57
2021/07/29 10:52:09;;;;;;;6.70;5.97;;;;;;;34.40;35.68;98610.13;4696882;30;20081;-55
2021/07/29 10:54:37;;;;;;;6.50;5.90;;;;;;;35.10;34.36;98621.84;4696844;30;20053;-55
2021/07/29 10:57:06;;;;;;;5.10;4.47;;;;;;;35.87;32.91;98616.19;4696183;30;20347;-56
2021/07/29 11:02:46;;;;;;;9.10;5.07;;;;;;;33.60;36.64;98607.66;4722734;24;20069;-55
2021/07/29 11:05:39;;;;;;;7.15;5.30;;;;;;;32.88;37.79;98608.44;4688212;30;20053;-55
2021/07/29 11:08:05;;;;;;;6.63;5.45;;;;;;;32.56;38.84;98607.66;4685025;30;20075;-55
2021/07/29 11:10:30;;;;;;;7.47;5.70;;;;;;;32.19;39.02;98609.38;4700135;30;20136;-55
2021/07/29 11:12:56;;;;;;;7.10;6.40;;;;;;;32.19;38.89;98601.31;4699880;30;20057;-57
2021/07/29 11:15:22;;;;;;;8.20;6.35;;;;;;;32.27;38.95;98603.75;4694069;30;20092;-55
2021/07/29 11:17:48;;;;;;;7.72;6.22;;;;;;;32.52;38.47;98606.47;4687619;30;20041;-54
2021/07/29 11:23:13;;;;;;;6.97;5.70;;;;;;;33.77;36.53;98605.22;4856783;24;20629;-54
2021/07/29 11:25:59;;;;;;;6.93;5.95;;;;;;;32.64;38.37;98609.25;4696061;30;21609;-55
2021/07/29 11:28:25;;;;;;;8.23;5.65;;;;;;;32.24;38.57;98604.19;4695098;30;20522;-56
2021/07/29 11:30:50;;;;;;;6.22;5.60;;;;;;;32.08;38.79;98602.00;4694066;30;20052;-56
2021/07/29 11:33:26;;;;;;;8.48;5.85;;;;;;;32.05;39.18;98599.72;4695002;30;20053;-58
2021/07/29 11:35:53;;;;;;;8.88;6.40;;;;;;;31.41;40.48;98603.31;4675984;30;20058;-55
2021/07/29 11:38:21;;;;;;;7.47;5.80;;;;;;;31.54;40.31;98597.06;4693961;30;20211;-56
2021/07/29 11:40:47;;;;;;;12.90;6.80;;;;;;;31.62;40.81;98601.41;4694328;30;20136;-56
2021/07/29 11:43:51;;;;;;;7.85;6.15;;;;;;;31.61;40.86;98608.66;4695027;30;20049;-56
2021/07/29 11:46:16;;;;;;;10.95;9.45;;;;;;;32.45;39.74;98596.81;4695439;30;20057;-55
2021/07/29 11:48:42;;;;;;;9.50;8.13;;;;;;;32.64;39.37;98598.50;4695098;30;20067;-55